createdAt,value
2018-10-17T00:00:59.428Z,12.40
2018-10-17T00:03:28.031Z,12.50
2018-10-17T00:05:56.674Z,12.50
2018-10-17T00:08:25.880Z,12.60
2018-10-17T00:10:54.475Z,12.60
2018-10-17T00:13:23.717Z,12.70
2018-10-17T00:15:52.482Z,12.40
2018-10-17T00:18:20.964Z,12.40
2018-10-17T00:20:49.662Z,12.40
2018-10-17T00:23:19.063Z,12.50
2018-10-17T00:25:47.647Z,12.50
2018-10-17T00:28:16.296Z,12.50
2018-10-17T00:30:44.785Z,12.50
2018-10-17T00:33:13.409Z,12.30
2018-10-17T00:35:42.084Z,12.10
2018-10-17T00:38:10.777Z,12.10
2018-10-17T00:40:39.301Z,12.00
2018-10-17T00:43:07.784Z,12.00
2018-10-17T00:45:36.273Z,11.90
2018-10-17T00:48:04.911Z,11.70
2018-10-17T00:50:33.602Z,11.70
2018-10-17T00:53:02.444Z,11.70
2018-10-17T00:55:31.012Z,11.70
2018-10-17T00:57:59.567Z,11.80
2018-10-17T01:00:28.206Z,11.80
2018-10-17T01:02:56.921Z,11.70
2018-10-17T01:05:25.385Z,11.70
2018-10-17T01:07:54.008Z,11.60
2018-10-17T01:10:22.666Z,11.60
2018-10-17T01:12:51.461Z,11.60
2018-10-17T01:15:20.061Z,11.50
2018-10-17T01:17:48.629Z,11.50
2018-10-17T01:20:17.409Z,11.50
2018-10-17T01:22:45.922Z,11.50
2018-10-17T01:25:14.588Z,11.50
2018-10-17T01:27:42.985Z,11.50
2018-10-17T01:30:11.522Z,11.50
2018-10-17T01:32:40.102Z,11.50
2018-10-17T01:35:08.761Z,11.50
2018-10-17T01:37:37.172Z,11.60
2018-10-17T01:40:06.625Z,11.60
2018-10-17T01:42:36.965Z,11.60
2018-10-17T01:45:06.517Z,11.50
2018-10-17T01:47:35.726Z,11.40
2018-10-17T01:50:04.882Z,11.40
2018-10-17T01:52:33.353Z,11.40
2018-10-17T01:55:02.564Z,11.20
2018-10-17T01:57:31.215Z,11.00
2018-10-17T01:59:59.777Z,10.90
2018-10-17T02:02:29.349Z,11.00
2018-10-17T02:04:57.861Z,11.00
2018-10-17T02:07:26.582Z,11.10
2018-10-17T02:09:55.088Z,11.10
2018-10-17T02:12:23.653Z,11.10
2018-10-17T02:14:52.175Z,11.20
2018-10-17T02:17:20.720Z,11.30
2018-10-17T02:19:49.360Z,11.40
2018-10-17T02:22:17.910Z,11.40
2018-10-17T02:24:47.182Z,11.40
2018-10-17T02:27:15.827Z,11.40
2018-10-17T02:29:44.499Z,11.40
2018-10-17T02:32:13.195Z,11.30
2018-10-17T02:34:47.234Z,11.20
2018-10-17T02:37:16.145Z,11.30
2018-10-17T02:39:44.744Z,11.40
2018-10-17T02:42:13.371Z,11.40
2018-10-17T02:44:42.030Z,11.40
2018-10-17T02:47:10.687Z,11.40
2018-10-17T02:49:39.245Z,11.40
2018-10-17T02:52:07.771Z,11.40
2018-10-17T02:54:36.369Z,11.40
2018-10-17T02:57:05.177Z,11.30
2018-10-17T02:59:33.799Z,11.30
2018-10-17T03:02:02.352Z,11.20
2018-10-17T03:04:30.926Z,11.20
2018-10-17T03:06:59.651Z,11.20
2018-10-17T03:09:28.154Z,11.30
2018-10-17T03:11:56.726Z,11.20
2018-10-17T03:14:25.554Z,11.10
2018-10-17T03:16:54.146Z,11.00
2018-10-17T03:19:22.967Z,11.00
2018-10-17T03:21:52.080Z,11.10
2018-10-17T03:24:20.621Z,11.10
2018-10-17T03:26:49.160Z,11.10
2018-10-17T03:29:17.807Z,11.20
2018-10-17T03:31:46.207Z,11.20
2018-10-17T03:34:14.873Z,11.20
2018-10-17T03:36:43.441Z,11.20
2018-10-17T03:39:12.529Z,11.30
2018-10-17T03:41:41.211Z,11.30
2018-10-17T03:44:10.115Z,11.20
2018-10-17T03:46:38.690Z,11.20
2018-10-17T03:49:08.352Z,11.20
2018-10-17T03:51:36.904Z,11.10
2018-10-17T03:54:05.932Z,11.10
2018-10-17T03:56:34.466Z,11.00
2018-10-17T03:59:03.575Z,11.00
2018-10-17T04:01:31.992Z,10.80
2018-10-17T04:04:00.571Z,10.80
2018-10-17T04:06:29.147Z,10.80
2018-10-17T04:08:58.817Z,10.80
2018-10-17T04:11:27.618Z,10.80
2018-10-17T04:13:56.530Z,10.80
2018-10-17T04:16:25.083Z,10.80
2018-10-17T04:18:53.671Z,10.90
2018-10-17T04:21:22.319Z,10.70
2018-10-17T04:23:51.144Z,10.60
2018-10-17T04:26:19.726Z,10.50
2018-10-17T04:28:48.427Z,10.50
2018-10-17T04:31:17.290Z,10.60
2018-10-17T04:33:46.385Z,10.60
2018-10-17T04:36:16.009Z,10.60
2018-10-17T04:38:44.526Z,10.60
2018-10-17T04:41:13.678Z,10.60
2018-10-17T04:43:43.080Z,10.50
2018-10-17T04:46:12.542Z,10.50
2018-10-17T04:48:48.704Z,10.40
2018-10-17T04:51:17.433Z,10.40
2018-10-17T04:53:46.927Z,10.30
2018-10-17T04:56:15.960Z,10.30
2018-10-17T04:58:44.941Z,10.20
2018-10-17T05:01:13.587Z,10.20
2018-10-17T05:03:42.149Z,10.10
2018-10-17T05:06:10.671Z,10.20
2018-10-17T05:08:39.172Z,10.20
2018-10-17T05:11:07.714Z,10.20
2018-10-17T05:13:36.171Z,10.20
2018-10-17T05:16:04.650Z,10.20
2018-10-17T05:18:33.967Z,10.10
2018-10-17T05:21:02.509Z,10.10
2018-10-17T05:23:30.981Z,10.10
2018-10-17T05:25:59.549Z,10.10
2018-10-17T05:28:28.017Z,10.20
2018-10-17T05:30:56.541Z,10.20
2018-10-17T05:33:25.016Z,9.90
2018-10-17T05:35:53.475Z,9.80
2018-10-17T05:38:21.892Z,9.80
2018-10-17T05:40:50.379Z,9.80
2018-10-17T05:43:18.902Z,9.70
2018-10-17T05:45:47.810Z,9.60
2018-10-17T05:48:17.079Z,9.70
2018-10-17T05:50:45.873Z,9.60
2018-10-17T05:53:14.625Z,9.60
2018-10-17T05:55:42.999Z,9.50
2018-10-17T05:58:11.697Z,9.40
2018-10-17T06:00:40.868Z,9.40
2018-10-17T06:03:09.446Z,9.40
2018-10-17T06:05:37.865Z,9.30
2018-10-17T06:08:07.203Z,9.30
2018-10-17T06:10:36.080Z,9.30
2018-10-17T06:13:05.039Z,9.30
2018-10-17T06:15:33.648Z,9.40
2018-10-17T06:18:02.436Z,9.50
2018-10-17T06:20:31.359Z,9.50
2018-10-17T06:23:00.097Z,9.60
2018-10-17T06:25:28.933Z,9.70
2018-10-17T06:27:57.409Z,9.80
2018-10-17T06:30:25.963Z,9.70
2018-10-17T06:32:54.513Z,9.80
2018-10-17T06:35:23.370Z,9.90
2018-10-17T06:37:51.884Z,10.00
2018-10-17T06:40:21.144Z,10.00
2018-10-17T06:42:49.724Z,10.20
2018-10-17T06:45:18.361Z,10.40
2018-10-17T06:47:47.945Z,10.50
2018-10-17T06:50:16.625Z,10.70
2018-10-17T06:52:45.268Z,10.80
2018-10-17T06:55:14.150Z,11.00
2018-10-17T06:57:42.618Z,11.20
2018-10-17T07:00:11.754Z,11.50
2018-10-17T07:02:40.454Z,11.70
2018-10-17T07:05:10.177Z,11.80
2018-10-17T07:07:39.276Z,12.00
2018-10-17T07:10:08.004Z,12.20
2018-10-17T07:12:36.592Z,12.40
2018-10-17T07:15:06.091Z,12.60
2018-10-17T07:17:34.696Z,12.90
2018-10-17T07:20:03.525Z,13.10
2018-10-17T07:22:32.246Z,13.30
2018-10-17T07:25:00.995Z,13.60
2018-10-17T07:27:29.688Z,13.90
2018-10-17T07:29:58.201Z,14.00
2018-10-17T07:32:27.177Z,14.20
2018-10-17T07:34:55.802Z,14.30
2018-10-17T07:37:24.401Z,14.30
2018-10-17T07:39:53.434Z,14.30
2018-10-17T07:42:22.066Z,14.40
2018-10-17T07:44:50.589Z,14.40
2018-10-17T07:47:19.110Z,14.60
2018-10-17T07:49:47.718Z,14.90
2018-10-17T07:52:16.299Z,15.10
2018-10-17T07:54:44.951Z,15.30
2018-10-17T07:57:13.451Z,15.60
2018-10-17T07:59:42.858Z,15.90
2018-10-17T08:02:11.400Z,16.00
2018-10-17T08:04:40.073Z,16.10
2018-10-17T08:07:08.585Z,16.20
2018-10-17T08:09:37.162Z,16.40
2018-10-17T08:12:05.804Z,16.60
2018-10-17T08:14:34.251Z,16.70
2018-10-17T08:17:03.278Z,16.40
2018-10-17T08:19:31.828Z,16.10
2018-10-17T08:22:00.332Z,16.60
2018-10-17T08:24:28.874Z,16.70
2018-10-17T08:26:57.316Z,16.80
2018-10-17T08:29:25.781Z,17.10
2018-10-17T08:31:54.313Z,17.30
2018-10-17T08:34:22.751Z,17.40
2018-10-17T08:36:51.611Z,17.70
2018-10-17T08:39:19.908Z,17.90
2018-10-17T08:41:48.403Z,17.90
2018-10-17T08:44:17.258Z,17.90
2018-10-17T08:46:45.866Z,17.90
2018-10-17T08:49:14.420Z,18.20
2018-10-17T08:51:42.880Z,18.40
2018-10-17T08:54:11.390Z,18.50
2018-10-17T08:56:39.866Z,18.50
2018-10-17T08:59:08.355Z,18.60
2018-10-17T09:01:36.829Z,18.80
2018-10-17T09:04:05.941Z,19.00
2018-10-17T09:06:34.975Z,18.70
2018-10-17T09:09:05.088Z,18.60
2018-10-17T09:11:33.633Z,18.70
2018-10-17T09:14:02.240Z,19.00
2018-10-17T09:16:30.788Z,18.80
2018-10-17T09:18:59.178Z,19.10
2018-10-17T09:21:28.126Z,19.40
2018-10-17T09:23:57.493Z,19.50
2018-10-17T09:26:26.093Z,19.50
2018-10-17T09:28:54.640Z,19.40
2018-10-17T09:31:23.358Z,19.60
2018-10-17T09:33:52.182Z,19.70
2018-10-17T09:36:21.050Z,19.90
2018-10-17T09:38:49.573Z,19.90
2018-10-17T09:41:17.990Z,19.90
2018-10-17T09:43:46.521Z,19.80
2018-10-17T09:46:15.057Z,19.80
2018-10-17T09:48:43.696Z,20.00
2018-10-17T09:51:12.226Z,20.00
2018-10-17T09:53:40.684Z,20.00
2018-10-17T09:56:10.063Z,20.10
2018-10-17T09:58:38.577Z,20.00
2018-10-17T10:01:12.362Z,19.90
2018-10-17T10:03:40.914Z,19.90
2018-10-17T10:06:09.411Z,19.80
2018-10-17T10:08:37.949Z,19.90
2018-10-17T10:11:06.906Z,20.20
2018-10-17T10:13:35.366Z,20.50
2018-10-17T10:16:03.917Z,20.60
2018-10-17T10:18:32.355Z,20.80
2018-10-17T10:21:00.890Z,21.00
2018-10-17T10:23:29.317Z,21.10
2018-10-17T10:25:57.795Z,21.20
2018-10-17T10:28:26.417Z,21.10
2018-10-17T10:30:54.685Z,21.40
2018-10-17T10:33:23.133Z,21.50
2018-10-17T10:35:51.685Z,21.50
2018-10-17T10:38:20.314Z,21.70
2018-10-17T10:40:48.792Z,21.80
2018-10-17T10:43:17.229Z,21.70
2018-10-17T10:45:45.701Z,22.00
2018-10-17T10:48:14.405Z,22.20
2018-10-17T10:50:43.362Z,21.90
2018-10-17T10:53:12.126Z,22.00
2018-10-17T10:55:40.773Z,22.00
2018-10-17T10:58:09.332Z,22.30
2018-10-17T11:00:37.805Z,22.60
2018-10-17T11:03:06.343Z,22.60
2018-10-17T11:05:35.041Z,22.60
2018-10-17T11:08:03.639Z,22.90
2018-10-17T11:10:32.104Z,23.20
2018-10-17T11:13:00.918Z,23.20
2018-10-17T11:15:29.533Z,23.10
2018-10-17T11:17:58.068Z,22.80
2018-10-17T11:20:26.506Z,22.90
2018-10-17T11:22:55.110Z,23.30
2018-10-17T11:25:23.659Z,23.30
2018-10-17T11:27:52.312Z,23.50
2018-10-17T11:30:20.821Z,23.80
2018-10-17T11:32:49.574Z,23.20
2018-10-17T11:35:18.233Z,23.20
2018-10-17T11:37:46.683Z,23.60
2018-10-17T11:40:15.359Z,23.90
2018-10-17T11:42:44.021Z,24.20
2018-10-17T11:45:12.633Z,24.40
2018-10-17T11:47:41.067Z,24.50
2018-10-17T11:50:10.420Z,24.40
2018-10-17T11:52:39.161Z,23.90
2018-10-17T11:55:08.042Z,23.90
2018-10-17T11:57:36.622Z,23.70
2018-10-17T12:00:07.163Z,23.70
2018-10-17T12:02:35.975Z,23.40
2018-10-17T12:05:05.695Z,23.20
2018-10-17T12:07:33.912Z,23.00
2018-10-17T12:10:02.690Z,23.50
2018-10-17T12:12:31.950Z,23.30
2018-10-17T12:15:00.495Z,23.50
2018-10-17T12:17:28.969Z,23.70
2018-10-17T12:19:57.564Z,24.20
2018-10-17T12:22:25.966Z,24.60
2018-10-17T12:24:54.703Z,24.30
2018-10-17T12:27:23.177Z,24.10
2018-10-17T12:29:51.725Z,23.80
2018-10-17T12:32:20.238Z,23.80
2018-10-17T12:34:48.787Z,23.70
2018-10-17T12:37:17.236Z,23.80
2018-10-17T12:39:45.759Z,23.70
2018-10-17T12:42:14.437Z,24.20
2018-10-17T12:44:42.926Z,24.20
2018-10-17T12:47:11.553Z,23.90
2018-10-17T12:49:40.231Z,23.50
2018-10-17T12:52:08.737Z,23.70
2018-10-17T12:54:37.365Z,23.40
2018-10-17T12:57:06.138Z,23.30
2018-10-17T12:59:34.747Z,23.30
2018-10-17T13:02:03.240Z,23.00
2018-10-17T13:04:31.673Z,23.10
2018-10-17T13:07:00.169Z,23.10
2018-10-17T13:09:28.625Z,23.10
2018-10-17T13:11:57.087Z,23.10
2018-10-17T13:14:25.561Z,23.30
2018-10-17T13:16:54.090Z,23.40
2018-10-17T13:19:22.668Z,23.30
2018-10-17T13:21:51.232Z,23.40
2018-10-17T13:24:19.984Z,23.10
2018-10-17T13:26:48.574Z,23.00
2018-10-17T13:29:17.222Z,23.10
2018-10-17T13:31:45.791Z,23.20
2018-10-17T13:34:14.403Z,23.10
2018-10-17T13:36:42.938Z,23.00
2018-10-17T13:39:13.012Z,23.00
2018-10-17T13:41:41.599Z,23.00
2018-10-17T13:44:10.549Z,22.70
2018-10-17T13:46:39.604Z,22.60
2018-10-17T13:49:08.236Z,22.50
2018-10-17T13:51:36.729Z,22.40
2018-10-17T13:54:05.698Z,22.40
2018-10-17T13:56:34.130Z,22.40
2018-10-17T13:59:02.599Z,22.40
2018-10-17T14:01:31.043Z,22.40
2018-10-17T14:03:59.534Z,22.40
2018-10-17T14:06:28.182Z,22.30
2018-10-17T14:08:56.694Z,22.30
2018-10-17T14:11:25.153Z,22.20
2018-10-17T14:13:53.599Z,22.20
2018-10-17T14:16:22.744Z,22.20
2018-10-17T14:18:51.375Z,22.20
2018-10-17T14:21:20.027Z,22.20
2018-10-17T14:23:48.489Z,22.10
2018-10-17T14:26:16.942Z,22.10
2018-10-17T14:28:45.414Z,22.00
2018-10-17T14:31:13.916Z,22.00
2018-10-17T14:33:42.421Z,22.00
2018-10-17T14:36:11.531Z,21.90
2018-10-17T14:38:40.027Z,21.90
2018-10-17T14:41:08.527Z,21.80
2018-10-17T14:43:37.037Z,21.80
2018-10-17T14:46:05.882Z,21.70
2018-10-17T14:48:34.388Z,21.70
2018-10-17T14:51:02.992Z,21.60
2018-10-17T14:53:31.485Z,21.50
2018-10-17T14:55:59.984Z,21.50
2018-10-17T14:58:28.487Z,21.50
2018-10-17T15:00:56.972Z,21.40
2018-10-17T15:03:25.603Z,21.40
2018-10-17T15:05:54.355Z,21.30
2018-10-17T15:08:22.872Z,21.30
2018-10-17T15:10:51.564Z,21.30
2018-10-17T15:13:19.905Z,21.20
2018-10-17T15:15:48.490Z,21.10
2018-10-17T15:18:17.621Z,21.00
2018-10-17T15:20:45.974Z,20.90
2018-10-17T15:23:14.447Z,20.80
2018-10-17T15:25:43.006Z,20.70
2018-10-17T15:28:11.683Z,20.70
2018-10-17T15:30:40.197Z,20.60
2018-10-17T15:33:08.765Z,20.60
2018-10-17T15:35:37.279Z,20.50
2018-10-17T15:38:05.999Z,20.50
2018-10-17T15:40:35.311Z,20.40
2018-10-17T15:43:04.054Z,20.30
2018-10-17T15:45:32.698Z,20.30
2018-10-17T15:48:01.316Z,20.30
2018-10-17T15:50:29.758Z,20.30
2018-10-17T15:52:58.545Z,20.30
2018-10-17T15:55:27.082Z,20.30
2018-10-17T15:57:56.221Z,20.30
2018-10-17T16:00:24.758Z,20.20
2018-10-17T16:02:53.290Z,20.20
2018-10-17T16:05:21.853Z,20.10
2018-10-17T16:07:50.304Z,20.00
2018-10-17T16:10:18.913Z,20.00
2018-10-17T16:12:47.431Z,19.90
2018-10-17T16:15:15.959Z,19.80
2018-10-17T16:17:44.621Z,19.70
2018-10-17T16:20:13.472Z,19.60
2018-10-17T16:22:42.496Z,19.40
2018-10-17T16:25:11.088Z,19.40
2018-10-17T16:27:39.575Z,19.30
2018-10-17T16:30:10.201Z,19.20
2018-10-17T16:32:39.183Z,19.00
2018-10-17T16:35:08.487Z,19.00
2018-10-17T16:37:38.045Z,18.90
2018-10-17T16:40:07.676Z,18.80
2018-10-17T16:42:37.015Z,18.60
2018-10-17T16:45:06.938Z,18.40
2018-10-17T16:47:35.752Z,18.40
2018-10-17T16:50:04.489Z,18.30
2018-10-17T16:52:34.065Z,18.10
2018-10-17T16:55:02.983Z,18.00
2018-10-17T16:57:31.649Z,17.90
2018-10-17T17:00:00.472Z,17.80
2018-10-17T17:02:29.079Z,17.70
2018-10-17T17:04:57.875Z,17.60
2018-10-17T17:07:26.415Z,17.50
2018-10-17T17:09:55.232Z,17.40
2018-10-17T17:12:23.904Z,17.50
2018-10-17T17:14:52.606Z,17.30
2018-10-17T17:17:21.193Z,17.20
2018-10-17T17:19:49.970Z,17.10
2018-10-17T17:22:19.043Z,17.10
2018-10-17T17:24:47.538Z,17.20
2018-10-17T17:27:17.427Z,17.10
2018-10-17T17:29:46.228Z,16.90
2018-10-17T17:32:15.043Z,16.90
2018-10-17T17:34:43.679Z,16.80
2018-10-17T17:37:12.213Z,16.80
2018-10-17T17:39:40.851Z,16.70
2018-10-17T17:42:09.569Z,16.60
2018-10-17T17:44:37.983Z,16.60
2018-10-17T17:47:07.331Z,16.60
2018-10-17T17:49:35.867Z,16.50
2018-10-17T17:52:04.460Z,16.40
2018-10-17T17:54:32.965Z,16.30
2018-10-17T17:57:01.428Z,16.20
2018-10-17T17:59:29.957Z,16.20
2018-10-17T18:01:58.658Z,16.20
2018-10-17T18:04:27.293Z,16.20
2018-10-17T18:06:55.611Z,16.30
2018-10-17T18:09:24.075Z,16.30
2018-10-17T18:11:52.759Z,16.30
2018-10-17T18:14:21.521Z,16.10
2018-10-17T18:16:50.048Z,16.00
2018-10-17T18:19:18.834Z,15.90
2018-10-17T18:21:47.422Z,15.90
2018-10-17T18:24:16.096Z,15.70
2018-10-17T18:26:44.760Z,15.70
2018-10-17T18:29:13.380Z,15.70
2018-10-17T18:31:42.212Z,15.70
2018-10-17T18:34:10.765Z,15.80
2018-10-17T18:36:39.410Z,15.70
2018-10-17T18:39:08.185Z,15.70
2018-10-17T18:41:37.091Z,15.60
2018-10-17T18:44:05.840Z,15.60
2018-10-17T18:46:34.550Z,15.60
2018-10-17T18:49:03.176Z,15.70
2018-10-17T18:51:31.902Z,15.80
2018-10-17T18:54:00.510Z,15.80
2018-10-17T18:56:29.124Z,15.70
2018-10-17T18:58:58.014Z,15.60
2018-10-17T19:01:26.982Z,15.60
2018-10-17T19:03:55.567Z,15.60
2018-10-17T19:06:24.239Z,15.60
2018-10-17T19:08:52.867Z,15.50
2018-10-17T19:11:21.448Z,15.50
2018-10-17T19:13:49.873Z,15.40
2018-10-17T19:16:18.553Z,15.40
2018-10-17T19:18:46.912Z,15.40
2018-10-17T19:21:15.456Z,15.40
2018-10-17T19:23:44.030Z,15.30
2018-10-17T19:26:12.818Z,15.30
2018-10-17T19:28:41.420Z,15.30
2018-10-17T19:31:10.060Z,15.20
2018-10-17T19:33:38.524Z,15.10
2018-10-17T19:36:07.543Z,15.10
2018-10-17T19:38:36.219Z,15.10
2018-10-17T19:41:05.068Z,14.80
2018-10-17T19:43:36.616Z,14.70
2018-10-17T19:46:05.550Z,14.80
2018-10-17T19:48:34.334Z,14.70
2018-10-17T19:51:02.965Z,14.50
2018-10-17T19:53:31.513Z,14.30
2018-10-17T19:56:00.156Z,14.40
2018-10-17T19:58:28.630Z,14.50
2018-10-17T20:00:57.364Z,14.40
2018-10-17T20:03:25.997Z,14.20
2018-10-17T20:05:54.631Z,14.20
2018-10-17T20:08:23.218Z,14.30
2018-10-17T20:10:51.667Z,14.20
2018-10-17T20:13:20.482Z,14.20
2018-10-17T20:15:49.066Z,14.20
2018-10-17T20:18:17.644Z,14.30
2018-10-17T20:20:46.192Z,14.20
2018-10-17T20:23:14.846Z,14.20
2018-10-17T20:25:43.363Z,14.20
2018-10-17T20:28:12.045Z,14.30
2018-10-17T20:30:40.677Z,14.30
2018-10-17T20:33:09.212Z,14.30
2018-10-17T20:35:38.440Z,14.30
2018-10-17T20:38:07.581Z,14.20
2018-10-17T20:40:36.931Z,14.20
2018-10-17T20:43:05.657Z,14.20
2018-10-17T20:45:34.283Z,14.20
2018-10-17T20:48:02.869Z,14.20
2018-10-17T20:50:31.510Z,14.20
2018-10-17T20:53:00.072Z,14.20
2018-10-17T20:55:28.628Z,14.20
2018-10-17T20:57:57.364Z,14.10
2018-10-17T21:00:25.880Z,13.90
2018-10-17T21:02:55.037Z,13.80
2018-10-17T21:05:25.022Z,13.90
2018-10-17T21:07:53.646Z,13.80
2018-10-17T21:10:22.448Z,13.80
2018-10-17T21:12:51.035Z,13.70
2018-10-17T21:15:20.027Z,13.70
2018-10-17T21:17:48.682Z,13.70
2018-10-17T21:20:17.410Z,13.70
2018-10-17T21:22:46.067Z,13.80
2018-10-17T21:25:14.761Z,13.80
2018-10-17T21:27:43.558Z,13.70
2018-10-17T21:30:12.249Z,13.70
2018-10-17T21:32:41.451Z,13.70
2018-10-17T21:35:10.113Z,13.60
2018-10-17T21:37:38.660Z,13.50
2018-10-17T21:40:07.266Z,13.50
2018-10-17T21:42:35.861Z,13.50
2018-10-17T21:45:04.657Z,13.50
2018-10-17T21:47:33.345Z,13.50
2018-10-17T21:50:02.034Z,13.50
2018-10-17T21:52:30.476Z,13.60
2018-10-17T21:54:59.088Z,13.60
2018-10-17T21:57:27.668Z,13.70
2018-10-17T21:59:56.299Z,13.60
2018-10-17T22:02:24.921Z,13.70
2018-10-17T22:04:53.632Z,13.60
2018-10-17T22:07:22.243Z,13.50
2018-10-17T22:09:50.865Z,13.50
2018-10-17T22:12:19.605Z,13.40
2018-10-17T22:14:48.195Z,13.20
2018-10-17T22:17:20.907Z,13.20
2018-10-17T22:19:50.391Z,13.10
2018-10-17T22:22:19.166Z,13.10
2018-10-17T22:24:47.739Z,13.10
2018-10-17T22:27:17.193Z,13.20
2018-10-17T22:29:46.683Z,13.10
2018-10-17T22:32:15.293Z,13.10
2018-10-17T22:34:44.096Z,13.00
2018-10-17T22:37:13.271Z,13.00
2018-10-17T22:39:41.982Z,12.90
2018-10-17T22:42:10.700Z,12.90
2018-10-17T22:44:39.501Z,12.90
2018-10-17T22:47:08.985Z,12.90
2018-10-17T22:49:37.569Z,12.80
2018-10-17T22:52:06.187Z,12.70
2018-10-17T22:54:35.608Z,12.70
2018-10-17T22:57:05.031Z,12.70
2018-10-17T22:59:33.709Z,12.80
2018-10-17T23:02:03.170Z,12.80
2018-10-17T23:04:31.858Z,12.70
2018-10-17T23:07:01.499Z,12.50
2018-10-17T23:09:30.609Z,12.30
2018-10-17T23:11:59.632Z,12.40
2018-10-17T23:14:28.635Z,12.50
2018-10-17T23:16:57.274Z,12.40
2018-10-17T23:19:26.671Z,12.40
2018-10-17T23:21:55.686Z,12.30
2018-10-17T23:24:24.292Z,12.40
2018-10-17T23:26:54.042Z,12.40
2018-10-17T23:29:23.597Z,12.20
2018-10-17T23:31:52.426Z,12.20
2018-10-17T23:34:21.818Z,12.20
2018-10-17T23:36:50.494Z,12.20
2018-10-17T23:39:19.407Z,12.30
2018-10-17T23:41:48.190Z,12.30
2018-10-17T23:44:16.888Z,12.30
2018-10-17T23:46:45.457Z,12.30
2018-10-17T23:49:14.145Z,12.30
2018-10-17T23:51:42.990Z,12.20
2018-10-17T23:54:11.762Z,12.20
2018-10-17T23:56:41.225Z,12.20
2018-10-17T23:59:09.911Z,12.20
